sensor_id;sensor_type;location;lat;lon;timestamp;P1;durP1;ratioP1;P2;durP2;ratioP2
70406;SDS011;57821;52.202;0.154;2022-09-24T00:01:27;16.58;;;6.88;;
70406;SDS011;57821;52.202;0.154;2022-09-24T00:04:00;14.18;;;6.00;;
70406;SDS011;57821;52.202;0.154;2022-09-24T00:06:29;20.23;;;6.22;;
70406;SDS011;57821;52.202;0.154;2022-09-24T00:08:59;13.95;;;6.00;;
70406;SDS011;57821;52.202;0.154;2022-09-24T00:11:26;22.38;;;6.45;;
70406;SDS011;57821;52.202;0.154;2022-09-24T00:13:54;14.63;;;6.55;;
70406;SDS011;57821;52.202;0.154;2022-09-24T00:16:22;12.52;;;6.00;;
70406;SDS011;57821;52.202;0.154;2022-09-24T00:18:51;16.70;;;5.57;;
70406;SDS011;57821;52.202;0.154;2022-09-24T00:21:22;13.63;;;5.32;;
70406;SDS011;57821;52.202;0.154;2022-09-24T00:23:51;16.92;;;5.28;;
70406;SDS011;57821;52.202;0.154;2022-09-24T00:26:19;17.35;;;5.40;;
70406;SDS011;57821;52.202;0.154;2022-09-24T00:28:50;11.68;;;5.35;;
70406;SDS011;57821;52.202;0.154;2022-09-24T00:31:17;12.77;;;5.15;;
70406;SDS011;57821;52.202;0.154;2022-09-24T00:33:44;17.67;;;5.38;;
70406;SDS011;57821;52.202;0.154;2022-09-24T00:36:10;18.92;;;5.22;;
70406;SDS011;57821;52.202;0.154;2022-09-24T00:38:37;12.13;;;5.47;;
70406;SDS011;57821;52.202;0.154;2022-09-24T00:41:03;15.38;;;5.22;;
70406;SDS011;57821;52.202;0.154;2022-09-24T00:43:34;17.40;;;5.82;;
70406;SDS011;57821;52.202;0.154;2022-09-24T00:46:16;13.70;;;5.32;;
70406;SDS011;57821;52.202;0.154;2022-09-24T00:48:47;16.13;;;6.18;;
70406;SDS011;57821;52.202;0.154;2022-09-24T00:51:18;13.43;;;5.72;;
70406;SDS011;57821;52.202;0.154;2022-09-24T00:53:48;18.92;;;6.35;;
70406;SDS011;57821;52.202;0.154;2022-09-24T00:56:17;16.67;;;6.10;;
70406;SDS011;57821;52.202;0.154;2022-09-24T00:58:46;12.68;;;5.57;;
70406;SDS011;57821;52.202;0.154;2022-09-24T01:01:15;14.15;;;5.55;;
70406;SDS011;57821;52.202;0.154;2022-09-24T01:03:43;13.27;;;5.35;;
70406;SDS011;57821;52.202;0.154;2022-09-24T01:06:10;13.52;;;6.30;;
70406;SDS011;57821;52.202;0.154;2022-09-24T01:08:38;15.82;;;6.15;;
70406;SDS011;57821;52.202;0.154;2022-09-24T01:11:08;14.30;;;6.18;;
70406;SDS011;57821;52.202;0.154;2022-09-24T01:20:02;16.33;;;5.85;;
70406;SDS011;57821;52.202;0.154;2022-09-24T01:22:56;15.10;;;7.07;;
70406;SDS011;57821;52.202;0.154;2022-09-24T01:30:43;13.43;;;5.72;;
70406;SDS011;57821;52.202;0.154;2022-09-24T01:33:15;10.73;;;5.90;;
70406;SDS011;57821;52.202;0.154;2022-09-24T01:35:49;13.98;;;5.88;;
70406;SDS011;57821;52.202;0.154;2022-09-24T01:38:20;16.08;;;5.85;;
70406;SDS011;57821;52.202;0.154;2022-09-24T01:40:50;16.25;;;5.43;;
70406;SDS011;57821;52.202;0.154;2022-09-24T01:43:20;12.95;;;5.45;;
70406;SDS011;57821;52.202;0.154;2022-09-24T01:45:50;12.55;;;5.68;;
70406;SDS011;57821;52.202;0.154;2022-09-24T01:48:17;12.35;;;5.20;;
70406;SDS011;57821;52.202;0.154;2022-09-24T01:53:28;12.73;;;4.70;;
70406;SDS011;57821;52.202;0.154;2022-09-24T01:56:01;13.18;;;5.38;;
70406;SDS011;57821;52.202;0.154;2022-09-24T01:58:39;18.17;;;5.10;;
70406;SDS011;57821;52.202;0.154;2022-09-24T02:01:14;12.38;;;4.50;;
70406;SDS011;57821;52.202;0.154;2022-09-24T02:03:54;11.75;;;4.13;;
70406;SDS011;57821;52.202;0.154;2022-09-24T02:06:28;13.45;;;4.65;;
70406;SDS011;57821;52.202;0.154;2022-09-24T02:08:58;10.98;;;4.10;;
70406;SDS011;57821;52.202;0.154;2022-09-24T02:11:25;11.68;;;4.95;;
70406;SDS011;57821;52.202;0.154;2022-09-24T02:13:56;13.00;;;4.90;;
70406;SDS011;57821;52.202;0.154;2022-09-24T02:16:37;14.40;;;4.65;;
70406;SDS011;57821;52.202;0.154;2022-09-24T02:19:10;13.77;;;4.30;;
70406;SDS011;57821;52.202;0.154;2022-09-24T02:21:38;12.43;;;4.82;;
70406;SDS011;57821;52.202;0.154;2022-09-24T02:24:09;16.48;;;4.97;;
70406;SDS011;57821;52.202;0.154;2022-09-24T02:26:40;9.43;;;4.07;;
70406;SDS011;57821;52.202;0.154;2022-09-24T02:29:07;14.70;;;4.95;;
70406;SDS011;57821;52.202;0.154;2022-09-24T02:31:36;12.48;;;4.25;;
70406;SDS011;57821;52.202;0.154;2022-09-24T02:34:06;12.73;;;4.20;;
70406;SDS011;57821;52.202;0.154;2022-09-24T02:36:36;11.80;;;4.60;;
70406;SDS011;57821;52.202;0.154;2022-09-24T02:39:04;17.95;;;4.13;;
70406;SDS011;57821;52.202;0.154;2022-09-24T02:41:30;12.05;;;4.72;;
70406;SDS011;57821;52.202;0.154;2022-09-24T02:43:57;12.25;;;5.07;;
70406;SDS011;57821;52.202;0.154;2022-09-24T02:46:24;13.38;;;5.88;;
70406;SDS011;57821;52.202;0.154;2022-09-24T02:48:50;9.48;;;4.80;;
70406;SDS011;57821;52.202;0.154;2022-09-24T02:51:17;14.35;;;4.60;;
70406;SDS011;57821;52.202;0.154;2022-09-24T02:53:43;14.82;;;4.38;;
70406;SDS011;57821;52.202;0.154;2022-09-24T02:56:10;12.07;;;4.05;;
70406;SDS011;57821;52.202;0.154;2022-09-24T02:58:36;9.63;;;3.63;;
70406;SDS011;57821;52.202;0.154;2022-09-24T03:01:03;13.25;;;4.10;;
70406;SDS011;57821;52.202;0.154;2022-09-24T03:03:31;10.00;;;4.57;;
70406;SDS011;57821;52.202;0.154;2022-09-24T03:05:57;9.35;;;3.92;;
70406;SDS011;57821;52.202;0.154;2022-09-24T03:08:24;14.43;;;4.53;;
70406;SDS011;57821;52.202;0.154;2022-09-24T03:10:50;11.50;;;4.35;;
70406;SDS011;57821;52.202;0.154;2022-09-24T03:13:17;10.52;;;4.32;;
70406;SDS011;57821;52.202;0.154;2022-09-24T03:15:44;15.32;;;4.63;;
70406;SDS011;57821;52.202;0.154;2022-09-24T03:18:11;13.73;;;3.83;;
70406;SDS011;57821;52.202;0.154;2022-09-24T03:20:39;13.10;;;4.63;;
70406;SDS011;57821;52.202;0.154;2022-09-24T03:23:05;13.90;;;4.40;;
70406;SDS011;57821;52.202;0.154;2022-09-24T03:25:32;13.25;;;4.65;;
70406;SDS011;57821;52.202;0.154;2022-09-24T03:27:59;10.57;;;4.20;;
70406;SDS011;57821;52.202;0.154;2022-09-24T03:30:25;13.10;;;4.50;;
70406;SDS011;57821;52.202;0.154;2022-09-24T03:32:52;19.52;;;6.68;;
70406;SDS011;57821;52.202;0.154;2022-09-24T03:35:18;11.82;;;4.30;;
70406;SDS011;57821;52.202;0.154;2022-09-24T03:37:45;11.77;;;5.25;;
70406;SDS011;57821;52.202;0.154;2022-09-24T03:40:14;14.60;;;4.50;;
70406;SDS011;57821;52.202;0.154;2022-09-24T03:42:41;12.07;;;4.80;;
70406;SDS011;57821;52.202;0.154;2022-09-24T03:45:07;11.32;;;4.10;;
70406;SDS011;57821;52.202;0.154;2022-09-24T03:47:34;10.07;;;4.22;;
70406;SDS011;57821;52.202;0.154;2022-09-24T03:50:01;11.25;;;4.80;;
70406;SDS011;57821;52.202;0.154;2022-09-24T03:52:27;11.30;;;3.70;;
70406;SDS011;57821;52.202;0.154;2022-09-24T03:54:54;12.77;;;4.07;;
70406;SDS011;57821;52.202;0.154;2022-09-24T03:57:21;12.13;;;5.05;;
70406;SDS011;57821;52.202;0.154;2022-09-24T03:59:47;11.18;;;4.18;;
70406;SDS011;57821;52.202;0.154;2022-09-24T04:02:14;11.05;;;4.18;;
70406;SDS011;57821;52.202;0.154;2022-09-24T04:04:40;16.08;;;5.38;;
70406;SDS011;57821;52.202;0.154;2022-09-24T04:07:07;14.65;;;4.07;;
70406;SDS011;57821;52.202;0.154;2022-09-24T04:09:33;16.38;;;4.45;;
70406;SDS011;57821;52.202;0.154;2022-09-24T04:12:00;10.18;;;4.85;;
70406;SDS011;57821;52.202;0.154;2022-09-24T04:14:27;13.45;;;4.85;;
70406;SDS011;57821;52.202;0.154;2022-09-24T04:16:53;13.07;;;5.30;;
70406;SDS011;57821;52.202;0.154;2022-09-24T04:19:20;14.55;;;4.80;;
70406;SDS011;57821;52.202;0.154;2022-09-24T04:21:46;12.27;;;4.43;;
70406;SDS011;57821;52.202;0.154;2022-09-24T04:24:12;10.13;;;4.20;;
70406;SDS011;57821;52.202;0.154;2022-09-24T04:26:39;10.75;;;4.35;;
70406;SDS011;57821;52.202;0.154;2022-09-24T04:29:05;14.15;;;4.53;;
70406;SDS011;57821;52.202;0.154;2022-09-24T04:31:32;12.98;;;4.30;;
70406;SDS011;57821;52.202;0.154;2022-09-24T04:33:58;17.38;;;6.10;;
70406;SDS011;57821;52.202;0.154;2022-09-24T04:36:25;10.63;;;4.80;;
70406;SDS011;57821;52.202;0.154;2022-09-24T04:38:51;13.38;;;5.20;;
70406;SDS011;57821;52.202;0.154;2022-09-24T04:41:18;10.05;;;4.28;;
70406;SDS011;57821;52.202;0.154;2022-09-24T04:43:45;11.95;;;4.72;;
70406;SDS011;57821;52.202;0.154;2022-09-24T04:46:12;15.07;;;4.97;;
70406;SDS011;57821;52.202;0.154;2022-09-24T04:48:38;11.10;;;4.75;;
70406;SDS011;57821;52.202;0.154;2022-09-24T04:51:06;8.20;;;3.90;;
70406;SDS011;57821;52.202;0.154;2022-09-24T04:53:33;9.23;;;4.32;;
70406;SDS011;57821;52.202;0.154;2022-09-24T04:56:01;13.18;;;4.40;;
70406;SDS011;57821;52.202;0.154;2022-09-24T04:58:31;14.45;;;4.20;;
70406;SDS011;57821;52.202;0.154;2022-09-24T05:01:00;15.35;;;4.40;;
70406;SDS011;57821;52.202;0.154;2022-09-24T05:03:27;10.82;;;4.20;;
70406;SDS011;57821;52.202;0.154;2022-09-24T05:05:53;12.57;;;4.85;;
70406;SDS011;57821;52.202;0.154;2022-09-24T05:08:20;10.73;;;4.10;;
70406;SDS011;57821;52.202;0.154;2022-09-24T05:10:46;13.23;;;4.05;;
70406;SDS011;57821;52.202;0.154;2022-09-24T05:13:13;12.90;;;4.07;;
70406;SDS011;57821;52.202;0.154;2022-09-24T05:15:39;11.85;;;4.57;;
70406;SDS011;57821;52.202;0.154;2022-09-24T05:18:08;10.38;;;4.22;;
70406;SDS011;57821;52.202;0.154;2022-09-24T05:20:35;8.82;;;4.43;;
70406;SDS011;57821;52.202;0.154;2022-09-24T05:23:01;10.57;;;3.83;;
70406;SDS011;57821;52.202;0.154;2022-09-24T05:25:28;13.10;;;4.38;;
70406;SDS011;57821;52.202;0.154;2022-09-24T05:27:54;12.10;;;4.47;;
70406;SDS011;57821;52.202;0.154;2022-09-24T05:30:21;11.38;;;4.53;;
70406;SDS011;57821;52.202;0.154;2022-09-24T05:32:49;13.63;;;4.70;;
70406;SDS011;57821;52.202;0.154;2022-09-24T05:35:19;12.95;;;4.50;;
70406;SDS011;57821;52.202;0.154;2022-09-24T05:37:47;12.15;;;4.50;;
70406;SDS011;57821;52.202;0.154;2022-09-24T05:40:14;11.07;;;3.92;;
70406;SDS011;57821;52.202;0.154;2022-09-24T05:42:41;10.88;;;4.65;;
70406;SDS011;57821;52.202;0.154;2022-09-24T05:45:07;11.57;;;4.53;;
70406;SDS011;57821;52.202;0.154;2022-09-24T05:47:34;9.00;;;4.70;;
70406;SDS011;57821;52.202;0.154;2022-09-24T05:50:00;16.92;;;5.78;;
70406;SDS011;57821;52.202;0.154;2022-09-24T05:52:27;13.25;;;5.15;;
70406;SDS011;57821;52.202;0.154;2022-09-24T05:54:53;13.75;;;4.70;;
70406;SDS011;57821;52.202;0.154;2022-09-24T05:57:20;13.40;;;5.28;;
70406;SDS011;57821;52.202;0.154;2022-09-24T05:59:46;10.70;;;5.07;;
70406;SDS011;57821;52.202;0.154;2022-09-24T06:02:13;11.98;;;5.43;;
70406;SDS011;57821;52.202;0.154;2022-09-24T06:04:39;10.70;;;5.10;;
70406;SDS011;57821;52.202;0.154;2022-09-24T06:07:06;12.05;;;5.03;;
70406;SDS011;57821;52.202;0.154;2022-09-24T06:09:32;9.40;;;5.28;;
70406;SDS011;57821;52.202;0.154;2022-09-24T06:11:58;11.95;;;5.50;;
70406;SDS011;57821;52.202;0.154;2022-09-24T06:14:25;14.23;;;6.35;;
70406;SDS011;57821;52.202;0.154;2022-09-24T06:16:51;12.07;;;6.60;;
70406;SDS011;57821;52.202;0.154;2022-09-24T06:19:18;14.90;;;7.35;;
70406;SDS011;57821;52.202;0.154;2022-09-24T06:21:44;16.08;;;7.15;;
70406;SDS011;57821;52.202;0.154;2022-09-24T06:24:11;13.60;;;6.80;;
70406;SDS011;57821;52.202;0.154;2022-09-24T06:26:37;18.17;;;6.90;;
70406;SDS011;57821;52.202;0.154;2022-09-24T06:29:03;12.27;;;6.43;;
70406;SDS011;57821;52.202;0.154;2022-09-24T06:31:30;13.82;;;7.70;;
70406;SDS011;57821;52.202;0.154;2022-09-24T06:33:57;11.70;;;6.68;;
70406;SDS011;57821;52.202;0.154;2022-09-24T06:36:24;12.15;;;7.00;;
70406;SDS011;57821;52.202;0.154;2022-09-24T06:38:50;13.85;;;6.90;;
70406;SDS011;57821;52.202;0.154;2022-09-24T06:41:17;14.10;;;6.97;;
70406;SDS011;57821;52.202;0.154;2022-09-24T06:43:43;16.77;;;6.88;;
70406;SDS011;57821;52.202;0.154;2022-09-24T06:46:10;17.20;;;6.93;;
70406;SDS011;57821;52.202;0.154;2022-09-24T06:48:37;16.67;;;7.30;;
70406;SDS011;57821;52.202;0.154;2022-09-24T06:51:03;17.38;;;7.50;;
70406;SDS011;57821;52.202;0.154;2022-09-24T06:53:30;13.30;;;6.78;;
70406;SDS011;57821;52.202;0.154;2022-09-24T06:55:57;16.50;;;7.55;;
70406;SDS011;57821;52.202;0.154;2022-09-24T06:58:24;15.93;;;7.30;;
70406;SDS011;57821;52.202;0.154;2022-09-24T07:00:51;13.90;;;7.18;;
70406;SDS011;57821;52.202;0.154;2022-09-24T07:03:26;15.13;;;7.10;;
70406;SDS011;57821;52.202;0.154;2022-09-24T07:05:54;17.38;;;7.30;;
70406;SDS011;57821;52.202;0.154;2022-09-24T07:08:21;13.98;;;7.40;;
70406;SDS011;57821;52.202;0.154;2022-09-24T07:10:48;14.50;;;7.32;;
70406;SDS011;57821;52.202;0.154;2022-09-24T07:13:15;14.27;;;7.72;;
70406;SDS011;57821;52.202;0.154;2022-09-24T07:15:42;16.33;;;7.57;;
70406;SDS011;57821;52.202;0.154;2022-09-24T07:18:10;14.00;;;8.18;;
70406;SDS011;57821;52.202;0.154;2022-09-24T07:20:37;14.27;;;8.18;;
70406;SDS011;57821;52.202;0.154;2022-09-24T07:23:07;18.63;;;9.02;;
70406;SDS011;57821;52.202;0.154;2022-09-24T07:25:36;16.52;;;8.68;;
70406;SDS011;57821;52.202;0.154;2022-09-24T07:28:10;15.85;;;9.13;;
70406;SDS011;57821;52.202;0.154;2022-09-24T07:30:38;17.60;;;8.20;;
70406;SDS011;57821;52.202;0.154;2022-09-24T07:33:05;19.02;;;9.45;;
70406;SDS011;57821;52.202;0.154;2022-09-24T07:35:31;18.23;;;8.85;;
70406;SDS011;57821;52.202;0.154;2022-09-24T07:37:59;17.98;;;8.20;;
70406;SDS011;57821;52.202;0.154;2022-09-24T07:40:28;16.80;;;8.70;;
70406;SDS011;57821;52.202;0.154;2022-09-24T07:42:56;20.60;;;7.47;;
70406;SDS011;57821;52.202;0.154;2022-09-24T07:45:23;17.05;;;8.45;;
70406;SDS011;57821;52.202;0.154;2022-09-24T07:47:58;20.70;;;8.38;;
70406;SDS011;57821;52.202;0.154;2022-09-24T07:50:27;20.40;;;9.20;;
70406;SDS011;57821;52.202;0.154;2022-09-24T07:52:54;14.55;;;7.65;;
70406;SDS011;57821;52.202;0.154;2022-09-24T07:55:21;19.88;;;8.40;;
70406;SDS011;57821;52.202;0.154;2022-09-24T07:57:49;14.52;;;8.18;;
70406;SDS011;57821;52.202;0.154;2022-09-24T08:00:18;18.20;;;7.78;;
70406;SDS011;57821;52.202;0.154;2022-09-24T08:02:46;14.18;;;7.07;;
70406;SDS011;57821;52.202;0.154;2022-09-24T08:05:16;14.20;;;7.07;;
70406;SDS011;57821;52.202;0.154;2022-09-24T08:07:49;15.18;;;6.78;;
70406;SDS011;57821;52.202;0.154;2022-09-24T08:10:17;14.52;;;6.35;;
70406;SDS011;57821;52.202;0.154;2022-09-24T08:12:43;18.20;;;6.43;;
70406;SDS011;57821;52.202;0.154;2022-09-24T08:15:10;16.27;;;6.70;;
70406;SDS011;57821;52.202;0.154;2022-09-24T08:17:36;17.65;;;6.68;;
70406;SDS011;57821;52.202;0.154;2022-09-24T08:20:03;9.07;;;5.05;;
70406;SDS011;57821;52.202;0.154;2022-09-24T08:22:30;12.85;;;6.05;;
70406;SDS011;57821;52.202;0.154;2022-09-24T08:24:56;12.38;;;5.43;;
70406;SDS011;57821;52.202;0.154;2022-09-24T08:27:23;12.70;;;5.00;;
70406;SDS011;57821;52.202;0.154;2022-09-24T08:29:49;12.98;;;5.82;;
70406;SDS011;57821;52.202;0.154;2022-09-24T08:32:16;13.90;;;5.25;;
70406;SDS011;57821;52.202;0.154;2022-09-24T08:34:43;9.57;;;4.93;;
70406;SDS011;57821;52.202;0.154;2022-09-24T08:37:10;10.38;;;4.30;;
70406;SDS011;57821;52.202;0.154;2022-09-24T08:39:37;10.85;;;5.53;;
70406;SDS011;57821;52.202;0.154;2022-09-24T08:44:41;8.52;;;4.75;;
70406;SDS011;57821;52.202;0.154;2022-09-24T08:47:15;10.15;;;4.85;;
70406;SDS011;57821;52.202;0.154;2022-09-24T08:50:07;13.13;;;5.43;;
70406;SDS011;57821;52.202;0.154;2022-09-24T08:52:45;11.95;;;4.88;;
70406;SDS011;57821;52.202;0.154;2022-09-24T08:55:21;9.02;;;4.53;;
70406;SDS011;57821;52.202;0.154;2022-09-24T08:57:57;11.02;;;5.07;;
70406;SDS011;57821;52.202;0.154;2022-09-24T09:00:29;8.90;;;3.85;;
70406;SDS011;57821;52.202;0.154;2022-09-24T09:03:05;12.30;;;4.68;;
70406;SDS011;57821;52.202;0.154;2022-09-24T09:05:58;11.35;;;4.35;;
70406;SDS011;57821;52.202;0.154;2022-09-24T09:11:23;9.65;;;3.92;;
70406;SDS011;57821;52.202;0.154;2022-09-24T09:16:30;9.37;;;3.97;;
70406;SDS011;57821;52.202;0.154;2022-09-24T09:19:04;8.13;;;3.08;;
70406;SDS011;57821;52.202;0.154;2022-09-24T09:21:41;9.00;;;3.97;;
70406;SDS011;57821;52.202;0.154;2022-09-24T09:24:19;12.25;;;3.42;;
70406;SDS011;57821;52.202;0.154;2022-09-24T09:26:47;9.20;;;3.15;;
70406;SDS011;57821;52.202;0.154;2022-09-24T09:29:16;7.65;;;2.97;;
70406;SDS011;57821;52.202;0.154;2022-09-24T09:39:39;7.78;;;2.42;;
70406;SDS011;57821;52.202;0.154;2022-09-24T09:42:33;11.02;;;3.33;;
70406;SDS011;57821;52.202;0.154;2022-09-24T09:45:01;9.45;;;2.90;;
70406;SDS011;57821;52.202;0.154;2022-09-24T09:47:49;6.00;;;2.70;;
70406;SDS011;57821;52.202;0.154;2022-09-24T09:50:35;11.52;;;2.47;;
70406;SDS011;57821;52.202;0.154;2022-09-24T09:53:16;11.75;;;3.13;;
70406;SDS011;57821;52.202;0.154;2022-09-24T09:56:05;8.75;;;2.90;;
70406;SDS011;57821;52.202;0.154;2022-09-24T09:58:33;8.70;;;2.50;;
70406;SDS011;57821;52.202;0.154;2022-09-24T10:01:03;8.50;;;2.42;;
70406;SDS011;57821;52.202;0.154;2022-09-24T10:06:24;9.05;;;2.88;;
70406;SDS011;57821;52.202;0.154;2022-09-24T10:08:52;8.88;;;2.92;;
70406;SDS011;57821;52.202;0.154;2022-09-24T10:11:20;9.25;;;2.83;;
70406;SDS011;57821;52.202;0.154;2022-09-24T10:14:00;10.23;;;2.80;;
70406;SDS011;57821;52.202;0.154;2022-09-24T10:16:27;9.10;;;2.95;;
70406;SDS011;57821;52.202;0.154;2022-09-24T10:18:54;8.85;;;2.67;;
70406;SDS011;57821;52.202;0.154;2022-09-24T10:21:31;8.32;;;2.55;;
70406;SDS011;57821;52.202;0.154;2022-09-24T10:24:00;7.75;;;2.63;;
70406;SDS011;57821;52.202;0.154;2022-09-24T10:26:33;8.50;;;2.40;;
70406;SDS011;57821;52.202;0.154;2022-09-24T10:31:55;5.63;;;1.80;;
70406;SDS011;57821;52.202;0.154;2022-09-24T10:34:25;7.47;;;1.50;;
70406;SDS011;57821;52.202;0.154;2022-09-24T10:37:01;7.38;;;2.00;;
70406;SDS011;57821;52.202;0.154;2022-09-24T10:39:36;6.70;;;1.73;;
70406;SDS011;57821;52.202;0.154;2022-09-24T10:42:02;5.32;;;1.80;;
70406;SDS011;57821;52.202;0.154;2022-09-24T10:44:33;7.18;;;2.10;;
70406;SDS011;57821;52.202;0.154;2022-09-24T10:55:05;5.78;;;1.55;;
70406;SDS011;57821;52.202;0.154;2022-09-24T11:00:20;5.80;;;1.58;;
70406;SDS011;57821;52.202;0.154;2022-09-24T11:08:46;5.93;;;1.48;;
70406;SDS011;57821;52.202;0.154;2022-09-24T11:11:23;7.45;;;2.25;;
70406;SDS011;57821;52.202;0.154;2022-09-24T11:14:20;6.82;;;1.38;;
70406;SDS011;57821;52.202;0.154;2022-09-24T11:17:15;5.00;;;1.10;;
70406;SDS011;57821;52.202;0.154;2022-09-24T11:20:11;7.25;;;1.40;;
70406;SDS011;57821;52.202;0.154;2022-09-24T11:27:53;5.85;;;1.02;;
70406;SDS011;57821;52.202;0.154;2022-09-24T11:33:20;6.35;;;1.20;;
70406;SDS011;57821;52.202;0.154;2022-09-24T11:39:03;4.88;;;1.27;;
70406;SDS011;57821;52.202;0.154;2022-09-24T11:47:39;3.97;;;0.98;;
70406;SDS011;57821;52.202;0.154;2022-09-24T11:56:14;3.88;;;1.10;;
70406;SDS011;57821;52.202;0.154;2022-09-24T11:58:50;6.72;;;1.20;;
70406;SDS011;57821;52.202;0.154;2022-09-24T12:01:24;4.85;;;0.70;;
70406;SDS011;57821;52.202;0.154;2022-09-24T12:06:38;4.00;;;0.73;;
70406;SDS011;57821;52.202;0.154;2022-09-24T12:09:13;7.25;;;0.75;;
70406;SDS011;57821;52.202;0.154;2022-09-24T12:11:46;5.25;;;0.88;;
70406;SDS011;57821;52.202;0.154;2022-09-24T12:14:25;7.88;;;0.80;;
70406;SDS011;57821;52.202;0.154;2022-09-24T12:16:58;4.22;;;0.88;;
70406;SDS011;57821;52.202;0.154;2022-09-24T12:19:33;6.45;;;0.80;;
70406;SDS011;57821;52.202;0.154;2022-09-24T12:22:07;5.70;;;0.80;;
70406;SDS011;57821;52.202;0.154;2022-09-24T12:24:36;4.53;;;0.90;;
70406;SDS011;57821;52.202;0.154;2022-09-24T12:27:10;3.65;;;0.70;;
70406;SDS011;57821;52.202;0.154;2022-09-24T12:30:27;3.13;;;0.70;;
70406;SDS011;57821;52.202;0.154;2022-09-24T12:35:21;4.68;;;0.85;;
70406;SDS011;57821;52.202;0.154;2022-09-24T12:37:49;4.28;;;0.40;;
70406;SDS011;57821;52.202;0.154;2022-09-24T12:43:44;3.55;;;0.65;;
70406;SDS011;57821;52.202;0.154;2022-09-24T12:47:14;3.10;;;0.60;;
70406;SDS011;57821;52.202;0.154;2022-09-24T12:51:52;2.28;;;0.47;;
70406;SDS011;57821;52.202;0.154;2022-09-24T12:54:30;3.80;;;0.70;;
70406;SDS011;57821;52.202;0.154;2022-09-24T13:02:25;3.42;;;0.80;;
70406;SDS011;57821;52.202;0.154;2022-09-24T13:07:33;3.28;;;0.60;;
70406;SDS011;57821;52.202;0.154;2022-09-24T13:10:35;3.63;;;0.80;;
70406;SDS011;57821;52.202;0.154;2022-09-24T13:12:56;4.15;;;0.70;;
70406;SDS011;57821;52.202;0.154;2022-09-24T13:20:31;2.15;;;0.35;;
70406;SDS011;57821;52.202;0.154;2022-09-24T13:23:44;2.97;;;0.60;;
70406;SDS011;57821;52.202;0.154;2022-09-24T13:28:27;4.13;;;0.50;;
70406;SDS011;57821;52.202;0.154;2022-09-24T13:39:37;4.13;;;0.68;;
70406;SDS011;57821;52.202;0.154;2022-09-24T13:45:01;3.70;;;0.50;;
70406;SDS011;57821;52.202;0.154;2022-09-24T13:50:24;3.10;;;0.40;;
70406;SDS011;57821;52.202;0.154;2022-09-24T13:55:30;3.42;;;0.60;;
70406;SDS011;57821;52.202;0.154;2022-09-24T13:57:59;6.38;;;0.77;;
70406;SDS011;57821;52.202;0.154;2022-09-24T14:00:26;2.95;;;0.57;;
70406;SDS011;57821;52.202;0.154;2022-09-24T14:03:04;4.80;;;0.52;;
70406;SDS011;57821;52.202;0.154;2022-09-24T14:05:47;4.75;;;0.70;;
70406;SDS011;57821;52.202;0.154;2022-09-24T14:08:16;4.75;;;0.80;;
70406;SDS011;57821;52.202;0.154;2022-09-24T14:10:46;3.43;;;0.60;;
70406;SDS011;57821;52.202;0.154;2022-09-24T14:18:27;1.90;;;0.38;;
70406;SDS011;57821;52.202;0.154;2022-09-24T14:20:58;2.88;;;0.60;;
70406;SDS011;57821;52.202;0.154;2022-09-24T14:23:27;3.85;;;0.75;;
70406;SDS011;57821;52.202;0.154;2022-09-24T14:25:57;2.35;;;0.50;;
70406;SDS011;57821;52.202;0.154;2022-09-24T14:28:25;5.65;;;0.80;;
70406;SDS011;57821;52.202;0.154;2022-09-24T14:30:53;3.47;;;0.50;;
70406;SDS011;57821;52.202;0.154;2022-09-24T14:33:22;4.10;;;0.68;;
70406;SDS011;57821;52.202;0.154;2022-09-24T14:35:57;4.85;;;0.52;;
70406;SDS011;57821;52.202;0.154;2022-09-24T14:38:27;3.05;;;0.70;;
70406;SDS011;57821;52.202;0.154;2022-09-24T14:40:58;3.40;;;0.50;;
70406;SDS011;57821;52.202;0.154;2022-09-24T14:43:37;5.43;;;0.70;;
70406;SDS011;57821;52.202;0.154;2022-09-24T14:46:07;5.97;;;0.68;;
70406;SDS011;57821;52.202;0.154;2022-09-24T14:48:44;4.13;;;0.60;;
70406;SDS011;57821;52.202;0.154;2022-09-24T14:51:26;3.42;;;0.65;;
70406;SDS011;57821;52.202;0.154;2022-09-24T14:57:10;6.25;;;0.77;;
70406;SDS011;57821;52.202;0.154;2022-09-24T14:59:48;5.97;;;1.10;;
70406;SDS011;57821;52.202;0.154;2022-09-24T15:05:02;3.92;;;0.55;;
70406;SDS011;57821;52.202;0.154;2022-09-24T15:07:32;6.47;;;0.90;;
70406;SDS011;57821;52.202;0.154;2022-09-24T15:10:00;4.03;;;0.70;;
70406;SDS011;57821;52.202;0.154;2022-09-24T15:12:33;2.90;;;0.70;;
70406;SDS011;57821;52.202;0.154;2022-09-24T15:15:03;3.65;;;0.80;;
70406;SDS011;57821;52.202;0.154;2022-09-24T15:17:31;3.20;;;0.70;;
70406;SDS011;57821;52.202;0.154;2022-09-24T15:19:59;7.78;;;1.20;;
70406;SDS011;57821;52.202;0.154;2022-09-24T15:22:27;5.60;;;1.20;;
70406;SDS011;57821;52.202;0.154;2022-09-24T15:24:56;5.90;;;0.80;;
70406;SDS011;57821;52.202;0.154;2022-09-24T15:27:36;4.63;;;0.70;;
70406;SDS011;57821;52.202;0.154;2022-09-24T15:30:04;5.15;;;0.80;;
70406;SDS011;57821;52.202;0.154;2022-09-24T15:32:32;5.18;;;0.70;;
70406;SDS011;57821;52.202;0.154;2022-09-24T15:34:59;6.20;;;0.75;;
70406;SDS011;57821;52.202;0.154;2022-09-24T15:37:27;3.55;;;0.85;;
70406;SDS011;57821;52.202;0.154;2022-09-24T15:39:58;4.90;;;0.65;;
70406;SDS011;57821;52.202;0.154;2022-09-24T15:42:30;4.07;;;0.50;;
70406;SDS011;57821;52.202;0.154;2022-09-24T15:44:57;5.75;;;0.43;;
70406;SDS011;57821;52.202;0.154;2022-09-24T15:47:23;3.83;;;0.60;;
70406;SDS011;57821;52.202;0.154;2022-09-24T15:49:50;4.47;;;0.63;;
70406;SDS011;57821;52.202;0.154;2022-09-24T15:54:49;5.38;;;0.73;;
70406;SDS011;57821;52.202;0.154;2022-09-24T15:57:16;2.63;;;0.50;;
70406;SDS011;57821;52.202;0.154;2022-09-24T15:59:43;3.63;;;0.73;;
70406;SDS011;57821;52.202;0.154;2022-09-24T16:02:16;5.32;;;0.65;;
70406;SDS011;57821;52.202;0.154;2022-09-24T16:04:48;4.43;;;0.93;;
70406;SDS011;57821;52.202;0.154;2022-09-24T16:07:15;5.95;;;0.60;;
70406;SDS011;57821;52.202;0.154;2022-09-24T16:09:42;5.57;;;0.85;;
70406;SDS011;57821;52.202;0.154;2022-09-24T16:12:11;4.32;;;0.55;;
70406;SDS011;57821;52.202;0.154;2022-09-24T16:14:40;3.50;;;0.80;;
70406;SDS011;57821;52.202;0.154;2022-09-24T16:17:07;3.90;;;0.90;;
70406;SDS011;57821;52.202;0.154;2022-09-24T16:19:33;4.45;;;0.77;;
70406;SDS011;57821;52.202;0.154;2022-09-24T16:22:00;4.15;;;0.90;;
70406;SDS011;57821;52.202;0.154;2022-09-24T16:24:26;11.70;;;0.90;;
70406;SDS011;57821;52.202;0.154;2022-09-24T16:26:57;6.38;;;1.02;;
70406;SDS011;57821;52.202;0.154;2022-09-24T16:29:24;3.95;;;0.65;;
70406;SDS011;57821;52.202;0.154;2022-09-24T16:31:50;5.97;;;0.75;;
70406;SDS011;57821;52.202;0.154;2022-09-24T16:34:17;5.75;;;0.80;;
70406;SDS011;57821;52.202;0.154;2022-09-24T16:36:43;4.00;;;0.98;;
70406;SDS011;57821;52.202;0.154;2022-09-24T16:39:10;3.05;;;0.65;;
70406;SDS011;57821;52.202;0.154;2022-09-24T16:41:37;4.82;;;0.70;;
70406;SDS011;57821;52.202;0.154;2022-09-24T16:44:03;5.07;;;0.52;;
70406;SDS011;57821;52.202;0.154;2022-09-24T16:46:30;8.32;;;0.60;;
70406;SDS011;57821;52.202;0.154;2022-09-24T16:48:57;5.22;;;0.68;;
70406;SDS011;57821;52.202;0.154;2022-09-24T16:51:23;7.18;;;0.70;;
70406;SDS011;57821;52.202;0.154;2022-09-24T16:53:53;4.10;;;0.70;;
70406;SDS011;57821;52.202;0.154;2022-09-24T16:56:21;4.20;;;1.10;;
70406;SDS011;57821;52.202;0.154;2022-09-24T16:58:47;2.90;;;0.50;;
70406;SDS011;57821;52.202;0.154;2022-09-24T17:01:15;3.70;;;0.88;;
70406;SDS011;57821;52.202;0.154;2022-09-24T17:03:44;5.43;;;0.85;;
70406;SDS011;57821;52.202;0.154;2022-09-24T17:06:20;4.95;;;0.75;;
70406;SDS011;57821;52.202;0.154;2022-09-24T17:08:51;4.75;;;0.80;;
70406;SDS011;57821;52.202;0.154;2022-09-24T17:11:18;5.22;;;0.80;;